createdAt,value
2023-02-26T00:00:50.112Z,3.35
2023-02-26T00:33:27.812Z,5.00
2023-02-26T00:36:22.217Z,4.10
2023-02-26T00:39:19.930Z,4.00
2023-02-26T00:41:54.256Z,3.53
2023-02-26T00:45:06.495Z,3.10
2023-02-26T00:48:30.078Z,3.10
2023-02-26T00:51:31.756Z,2.90
2023-02-26T00:54:24.952Z,3.13
2023-02-26T00:56:57.514Z,2.95
2023-02-26T00:59:27.237Z,2.85
2023-02-26T01:01:54.631Z,3.13
2023-02-26T01:04:56.336Z,3.25
2023-02-26T01:14:25.758Z,2.90
2023-02-26T01:17:54.228Z,2.70
2023-02-26T01:21:02.377Z,2.90
2023-02-26T01:23:44.508Z,3.28
2023-02-26T01:26:22.156Z,2.83
2023-02-26T01:28:49.889Z,3.20
2023-02-26T01:32:43.535Z,3.22
2023-02-26T01:35:58.917Z,3.28
2023-02-26T01:39:28.041Z,2.70
2023-02-26T01:42:30.276Z,2.88
2023-02-26T01:46:10.523Z,2.95
2023-02-26T01:49:25.987Z,3.40
2023-02-26T01:52:00.125Z,2.90
2023-02-26T01:54:51.225Z,3.15
2023-02-26T01:57:44.391Z,3.55
2023-02-26T02:01:01.234Z,3.42
2023-02-26T02:06:30.192Z,3.45
2023-02-26T02:12:24.172Z,3.33
2023-02-26T02:15:37.014Z,3.35
2023-02-26T02:18:29.444Z,3.45
2023-02-26T02:21:30.215Z,4.03
2023-02-26T02:24:51.850Z,4.22
2023-02-26T02:27:41.529Z,3.92
2023-02-26T02:30:38.758Z,4.25
2023-02-26T02:33:20.625Z,4.28
2023-02-26T02:35:59.370Z,4.53
2023-02-26T02:38:48.442Z,3.92
2023-02-26T02:41:25.805Z,4.28
2023-02-26T02:43:55.149Z,5.00
2023-02-26T02:46:31.682Z,4.80
2023-02-26T02:49:17.250Z,4.57
2023-02-26T02:51:56.213Z,4.05
2023-02-26T02:54:38.944Z,4.90
2023-02-26T02:57:35.892Z,4.93
2023-02-26T03:00:11.241Z,4.57
2023-02-26T03:03:17.505Z,4.57
2023-02-26T03:05:45.651Z,4.20
2023-02-26T03:08:20.633Z,4.30
2023-02-26T03:10:48.098Z,4.35
2023-02-26T03:13:25.096Z,4.35
2023-02-26T03:16:33.341Z,4.50
2023-02-26T03:19:16.313Z,4.32
2023-02-26T03:22:05.200Z,4.53
2023-02-26T03:25:11.404Z,5.30
2023-02-26T03:28:19.115Z,4.03
2023-02-26T03:31:01.425Z,4.50
2023-02-26T03:33:53.707Z,4.80
2023-02-26T03:37:32.593Z,4.50
2023-02-26T03:41:10.143Z,4.53
2023-02-26T03:44:30.874Z,4.40
2023-02-26T03:47:06.415Z,4.70
2023-02-26T03:50:01.406Z,4.20
2023-02-26T03:52:38.181Z,4.45
2023-02-26T03:55:35.097Z,3.50
2023-02-26T03:58:27.263Z,3.75
2023-02-26T04:01:23.473Z,3.72
2023-02-26T04:06:39.080Z,3.92
2023-02-26T04:09:16.126Z,3.78
2023-02-26T04:11:46.525Z,4.25
2023-02-26T04:14:38.346Z,4.20
2023-02-26T04:17:10.957Z,4.65
2023-02-26T04:19:38.162Z,3.70
2023-02-26T04:22:05.041Z,3.67
2023-02-26T04:24:33.056Z,4.13
2023-02-26T04:27:02.103Z,3.70
2023-02-26T04:29:30.857Z,3.28
2023-02-26T04:31:58.277Z,3.20
2023-02-26T04:34:25.472Z,3.22
2023-02-26T04:36:53.315Z,3.13
2023-02-26T04:39:27.846Z,3.42
2023-02-26T04:41:55.651Z,3.45
2023-02-26T04:44:22.712Z,3.13
2023-02-26T04:46:51.325Z,3.10
2023-02-26T04:49:19.764Z,3.10
2023-02-26T04:51:47.681Z,2.90
2023-02-26T04:54:17.142Z,2.90
2023-02-26T04:56:44.343Z,2.85
2023-02-26T04:59:11.447Z,2.90
2023-02-26T05:01:38.505Z,3.85
2023-02-26T05:04:08.733Z,3.10
2023-02-26T05:06:36.214Z,2.70
2023-02-26T05:09:03.767Z,2.35
2023-02-26T05:11:30.863Z,2.85
2023-02-26T05:13:57.829Z,2.60
2023-02-26T05:16:26.205Z,2.03
2023-02-26T05:18:53.347Z,2.10
2023-02-26T05:21:21.810Z,2.30
2023-02-26T05:23:48.758Z,2.17
2023-02-26T05:26:17.472Z,2.20
2023-02-26T05:28:46.947Z,1.98
2023-02-26T05:31:16.846Z,2.60
2023-02-26T05:33:46.868Z,2.38
2023-02-26T05:36:15.755Z,2.85
2023-02-26T05:38:42.755Z,2.80
2023-02-26T05:41:14.558Z,2.80
2023-02-26T05:43:42.278Z,2.42
2023-02-26T05:46:09.268Z,2.47
2023-02-26T05:48:45.702Z,2.55
2023-02-26T05:51:13.352Z,2.60
2023-02-26T05:53:40.554Z,2.60
2023-02-26T05:56:07.966Z,2.65
2023-02-26T05:58:34.933Z,2.92
2023-02-26T06:01:01.946Z,2.72
2023-02-26T06:03:29.865Z,2.78
2023-02-26T06:06:15.056Z,3.10
2023-02-26T06:08:44.528Z,2.92
2023-02-26T06:11:25.536Z,3.47
2023-02-26T06:14:01.743Z,3.00
2023-02-26T06:16:35.820Z,2.95
2023-02-26T06:19:16.433Z,3.13
2023-02-26T06:22:01.867Z,3.10
2023-02-26T06:24:28.874Z,3.90
2023-02-26T06:27:16.637Z,3.55
2023-02-26T06:29:49.288Z,3.00
2023-02-26T06:32:30.204Z,3.58
2023-02-26T06:35:23.073Z,3.17
2023-02-26T06:38:39.388Z,3.15
2023-02-26T06:41:04.887Z,4.05
2023-02-26T06:43:35.384Z,3.80
2023-02-26T06:46:02.751Z,3.78
2023-02-26T06:48:30.123Z,4.25
2023-02-26T06:50:57.380Z,3.40
2023-02-26T06:53:24.983Z,3.13
2023-02-26T06:55:53.607Z,3.38
2023-02-26T07:00:07.105Z,3.90
2023-02-26T07:02:40.122Z,2.80
2023-02-26T07:05:07.667Z,3.00
2023-02-26T07:07:34.571Z,3.13
2023-02-26T07:10:01.492Z,2.63
2023-02-26T07:12:28.571Z,3.00
2023-02-26T07:14:55.571Z,2.78
2023-02-26T07:17:22.503Z,3.28
2023-02-26T07:19:52.095Z,2.95
2023-02-26T07:22:22.076Z,3.10
2023-02-26T07:24:50.323Z,3.40
2023-02-26T07:27:17.640Z,2.70
2023-02-26T07:29:44.567Z,3.60
2023-02-26T07:32:11.821Z,2.58
2023-02-26T07:34:38.965Z,3.00
2023-02-26T07:37:05.891Z,2.72
2023-02-26T07:39:32.777Z,3.00
2023-02-26T07:41:59.689Z,2.70
2023-02-26T07:44:29.951Z,2.80
2023-02-26T07:46:57.080Z,3.53
2023-02-26T07:49:25.248Z,3.50
2023-02-26T07:51:52.333Z,3.00
2023-02-26T07:54:19.526Z,2.50
2023-02-26T07:56:46.451Z,2.30
2023-02-26T07:59:13.435Z,2.25
2023-02-26T08:01:40.409Z,2.33
2023-02-26T08:04:07.501Z,2.25
2023-02-26T08:06:35.386Z,2.47
2023-02-26T08:09:05.361Z,2.10
2023-02-26T08:11:35.600Z,2.20
2023-02-26T08:14:03.332Z,2.00
2023-02-26T08:16:30.375Z,1.98
2023-02-26T08:18:57.233Z,2.00
2023-02-26T08:21:25.356Z,1.75
2023-02-26T08:23:52.519Z,1.90
2023-02-26T08:26:19.505Z,2.00
2023-02-26T08:28:47.318Z,2.20
2023-02-26T08:31:15.692Z,2.20
2023-02-26T08:33:43.709Z,2.03
2023-02-26T08:36:11.877Z,1.63
2023-02-26T08:38:39.590Z,1.83
2023-02-26T08:41:06.692Z,1.88
2023-02-26T08:43:33.684Z,1.60
2023-02-26T08:46:02.165Z,2.20
2023-02-26T08:48:29.158Z,1.88
2023-02-26T08:50:56.285Z,2.22
2023-02-26T08:53:23.500Z,2.03
2023-02-26T08:55:54.995Z,2.08
2023-02-26T08:58:22.608Z,1.80
2023-02-26T09:00:49.626Z,2.15
2023-02-26T09:07:32.613Z,2.00
2023-02-26T09:10:02.977Z,1.35
2023-02-26T09:12:29.852Z,1.65
2023-02-26T09:14:59.001Z,1.42
2023-02-26T09:17:26.585Z,1.60
2023-02-26T09:19:53.831Z,1.80
2023-02-26T09:22:24.421Z,1.45
2023-02-26T09:24:52.202Z,1.40
2023-02-26T09:27:19.370Z,1.38
2023-02-26T09:29:46.602Z,1.33
2023-02-26T09:32:17.992Z,1.38
2023-02-26T09:34:49.054Z,1.88
2023-02-26T09:37:20.608Z,1.70
2023-02-26T09:39:47.891Z,1.50
2023-02-26T09:42:44.669Z,1.35
2023-02-26T09:48:05.423Z,1.58
2023-02-26T09:50:58.164Z,1.90
2023-02-26T09:53:37.112Z,1.27
2023-02-26T09:56:26.392Z,1.10
2023-02-26T09:58:55.496Z,1.20
2023-02-26T10:01:56.205Z,1.17
2023-02-26T10:04:42.781Z,1.13
2023-02-26T10:07:16.956Z,1.50
2023-02-26T10:09:58.614Z,1.17
2023-02-26T10:12:29.758Z,1.40
2023-02-26T10:15:13.289Z,0.93
2023-02-26T10:17:57.623Z,1.23
2023-02-26T10:20:54.823Z,1.50
2023-02-26T10:23:53.203Z,1.00
2023-02-26T10:26:27.000Z,1.35
2023-02-26T10:29:14.970Z,1.00
2023-02-26T10:32:03.896Z,1.05
2023-02-26T10:34:59.208Z,1.13
2023-02-26T10:37:50.292Z,0.93
2023-02-26T10:40:56.854Z,0.90
2023-02-26T10:43:41.297Z,0.98
2023-02-26T10:46:33.404Z,1.20
2023-02-26T10:49:52.258Z,0.90
2023-02-26T10:52:27.699Z,0.98
2023-02-26T10:55:38.949Z,1.27
2023-02-26T10:58:23.816Z,1.10
2023-02-26T11:00:54.597Z,0.80
2023-02-26T11:03:37.797Z,1.00
2023-02-26T11:06:06.745Z,1.02
2023-02-26T11:08:47.935Z,0.75
2023-02-26T11:11:36.833Z,1.00
2023-02-26T11:14:03.877Z,0.88
2023-02-26T11:16:30.794Z,1.35
2023-02-26T11:19:01.165Z,1.08
2023-02-26T11:21:41.291Z,0.82
2023-02-26T11:24:16.579Z,0.70
2023-02-26T11:29:19.858Z,0.85
2023-02-26T11:31:58.099Z,0.80
2023-02-26T11:34:32.245Z,0.80
2023-02-26T11:37:02.018Z,0.90
2023-02-26T11:39:36.124Z,1.15
2023-02-26T11:42:05.275Z,1.00
2023-02-26T11:44:41.646Z,0.82
2023-02-26T11:47:16.795Z,1.58
2023-02-26T11:49:54.286Z,0.98
2023-02-26T11:52:42.190Z,0.90
2023-02-26T11:55:23.016Z,0.60
2023-02-26T11:57:57.101Z,0.85
2023-02-26T12:00:25.295Z,0.90
2023-02-26T12:03:01.998Z,1.15
2023-02-26T12:05:29.115Z,0.70
2023-02-26T12:07:56.108Z,0.80
2023-02-26T12:10:52.293Z,0.88
2023-02-26T12:16:25.029Z,0.93
2023-02-26T12:19:29.184Z,1.40
2023-02-26T12:22:57.754Z,5.03
2023-02-26T12:26:04.022Z,11.15
2023-02-26T12:28:36.799Z,0.88
2023-02-26T12:31:51.154Z,1.20
2023-02-26T12:34:36.071Z,0.80
2023-02-26T12:37:46.615Z,1.70
2023-02-26T12:40:30.880Z,1.10
2023-02-26T12:43:36.741Z,2.85
2023-02-26T12:46:10.973Z,0.90
2023-02-26T12:48:55.935Z,0.75
2023-02-26T12:51:47.046Z,2.95
2023-02-26T12:54:45.433Z,1.52
2023-02-26T12:57:32.130Z,1.30
2023-02-26T13:00:32.606Z,1.20
2023-02-26T13:03:11.294Z,0.75
2023-02-26T13:06:29.557Z,0.63
2023-02-26T13:09:21.124Z,0.80
2023-02-26T13:12:29.898Z,1.80
2023-02-26T13:15:18.026Z,1.27
2023-02-26T13:18:15.291Z,1.08
2023-02-26T13:20:56.549Z,3.47
2023-02-26T13:23:31.401Z,1.42
2023-02-26T13:26:04.959Z,0.70
2023-02-26T13:29:06.327Z,1.33
2023-02-26T13:31:41.892Z,1.27
2023-02-26T13:34:43.825Z,1.38
2023-02-26T13:37:45.610Z,1.30
2023-02-26T13:40:40.046Z,0.95
2023-02-26T13:43:32.272Z,0.77
2023-02-26T13:46:23.124Z,1.67
2023-02-26T13:48:58.565Z,0.85
2023-02-26T13:51:38.938Z,0.90
2023-02-26T13:54:45.547Z,1.80
2023-02-26T13:57:57.946Z,1.67
2023-02-26T14:00:57.483Z,0.98
2023-02-26T14:03:24.344Z,0.60
2023-02-26T14:05:55.628Z,0.40
2023-02-26T14:08:39.286Z,0.40
2023-02-26T14:11:43.431Z,0.80
2023-02-26T14:14:31.894Z,0.93
2023-02-26T14:17:08.169Z,1.00
2023-02-26T14:19:53.958Z,0.68
2023-02-26T14:25:15.717Z,0.40
2023-02-26T14:27:46.509Z,0.85
2023-02-26T14:30:34.705Z,1.00
2023-02-26T14:33:03.470Z,0.70
2023-02-26T14:35:36.402Z,0.65
2023-02-26T14:38:12.622Z,0.60
2023-02-26T14:40:47.755Z,0.80
2023-02-26T14:43:34.862Z,0.90
2023-02-26T14:46:04.977Z,0.50
2023-02-26T14:48:33.651Z,0.60
2023-02-26T14:51:34.852Z,0.50
2023-02-26T14:54:11.718Z,0.45
2023-02-26T14:57:08.931Z,0.75
2023-02-26T15:03:17.095Z,0.45
2023-02-26T15:05:57.943Z,0.57
2023-02-26T15:08:48.783Z,0.77
2023-02-26T15:11:54.635Z,0.60
2023-02-26T15:14:56.999Z,0.43
2023-02-26T15:18:04.024Z,0.52
2023-02-26T15:21:13.535Z,0.70
2023-02-26T15:23:47.861Z,1.05
2023-02-26T15:26:37.023Z,0.70
2023-02-26T15:29:10.963Z,0.80
2023-02-26T15:31:54.196Z,0.93
2023-02-26T15:34:22.203Z,0.85
2023-02-26T15:36:54.463Z,1.10
2023-02-26T15:39:25.290Z,1.55
2023-02-26T15:41:55.769Z,0.93
2023-02-26T15:44:28.631Z,1.00
2023-02-26T15:47:03.495Z,1.20
2023-02-26T15:49:38.342Z,1.17
2023-02-26T15:52:12.140Z,1.35
2023-02-26T15:54:53.805Z,1.15
2023-02-26T15:57:24.368Z,1.25
2023-02-26T16:00:06.882Z,1.13
2023-02-26T16:02:41.093Z,0.82
2023-02-26T16:05:14.564Z,1.10
2023-02-26T16:07:41.934Z,0.85
2023-02-26T16:10:28.043Z,1.15
2023-02-26T16:12:56.276Z,1.35
2023-02-26T16:15:36.528Z,1.02
2023-02-26T16:18:16.826Z,1.10
2023-02-26T16:20:52.725Z,1.42
2023-02-26T16:23:38.930Z,1.15
2023-02-26T16:26:36.318Z,1.25
2023-02-26T16:29:20.074Z,1.20
2023-02-26T16:31:55.910Z,1.30
2023-02-26T16:34:50.523Z,1.00
2023-02-26T16:37:24.929Z,1.52
2023-02-26T16:40:34.704Z,2.35
2023-02-26T16:43:06.704Z,1.63
2023-02-26T16:45:36.540Z,1.60
2023-02-26T16:48:22.680Z,1.25
2023-02-26T16:51:05.178Z,1.23
2023-02-26T16:53:47.596Z,1.23
2023-02-26T16:56:20.660Z,1.27
2023-02-26T16:59:11.928Z,1.33
2023-02-26T17:01:51.893Z,1.05
2023-02-26T17:04:24.893Z,1.35
2023-02-26T17:06:53.103Z,1.20
2023-02-26T17:09:40.401Z,1.58
2023-02-26T17:12:48.954Z,1.45
2023-02-26T17:15:34.349Z,1.58
2023-02-26T17:18:01.640Z,1.45
2023-02-26T17:20:30.826Z,1.45
2023-02-26T17:23:03.989Z,1.80
2023-02-26T17:25:39.800Z,1.60
2023-02-26T17:28:10.340Z,1.80
2023-02-26T17:30:38.274Z,1.23
2023-02-26T17:33:07.748Z,1.92
2023-02-26T17:35:34.879Z,1.35
2023-02-26T17:38:01.909Z,1.60
2023-02-26T17:40:36.517Z,1.60
2023-02-26T17:43:04.694Z,1.90
2023-02-26T17:45:36.004Z,1.80
2023-02-26T17:48:03.612Z,1.80
2023-02-26T17:50:47.451Z,2.00
2023-02-26T17:53:17.020Z,1.65
2023-02-26T17:55:46.131Z,1.33
2023-02-26T17:58:29.294Z,1.40
2023-02-26T18:00:57.348Z,2.78
2023-02-26T18:03:24.362Z,1.40
2023-02-26T18:05:54.564Z,1.63
2023-02-26T18:08:32.360Z,2.10
2023-02-26T18:11:02.100Z,1.77
2023-02-26T18:13:30.904Z,1.80
2023-02-26T18:16:02.901Z,1.38
2023-02-26T18:18:30.722Z,1.50
2023-02-26T18:20:58.182Z,2.03
2023-02-26T18:23:25.656Z,1.50
2023-02-26T18:25:54.809Z,1.60
2023-02-26T18:28:26.392Z,1.92
2023-02-26T18:30:56.120Z,1.60
2023-02-26T18:33:25.202Z,1.50
2023-02-26T18:35:56.804Z,1.70
2023-02-26T18:38:28.332Z,1.58
2023-02-26T18:40:55.872Z,1.80
2023-02-26T18:43:22.986Z,2.05
2023-02-26T18:45:52.425Z,2.55
2023-02-26T18:48:21.426Z,1.52
2023-02-26T18:50:49.244Z,2.00
2023-02-26T18:53:17.736Z,2.35
2023-02-26T18:55:45.624Z,2.20
2023-02-26T18:58:13.277Z,3.42
2023-02-26T19:00:41.764Z,2.30
2023-02-26T19:03:09.441Z,2.42
2023-02-26T19:05:37.905Z,2.45
2023-02-26T19:08:06.853Z,2.53
2023-02-26T19:10:34.670Z,2.40
2023-02-26T19:13:03.062Z,2.20
2023-02-26T19:15:31.811Z,2.60
2023-02-26T19:18:00.513Z,2.63
2023-02-26T19:20:27.813Z,2.17
2023-02-26T19:22:55.259Z,2.33
2023-02-26T19:25:35.481Z,2.85
2023-02-26T19:28:05.923Z,3.13
2023-02-26T19:30:34.588Z,2.50
2023-02-26T19:33:02.996Z,2.50
2023-02-26T19:35:31.398Z,2.50
2023-02-26T19:37:59.274Z,3.30
2023-02-26T19:40:28.255Z,3.55
2023-02-26T19:42:57.102Z,3.53
2023-02-26T19:45:24.603Z,4.35
2023-02-26T19:47:52.439Z,5.50
2023-02-26T19:50:22.098Z,5.85
2023-02-26T19:52:50.096Z,5.78
2023-02-26T19:55:17.709Z,5.63
2023-02-26T19:57:45.219Z,5.65
2023-02-26T20:00:14.539Z,4.35
2023-02-26T20:02:43.957Z,3.92
2023-02-26T20:05:17.062Z,3.17
2023-02-26T20:07:46.560Z,4.28
2023-02-26T20:10:16.027Z,3.00
2023-02-26T20:12:45.727Z,3.58
2023-02-26T20:15:14.377Z,2.40
2023-02-26T20:17:48.037Z,2.38
2023-02-26T20:20:15.578Z,2.70
2023-02-26T20:22:42.837Z,2.17
2023-02-26T20:25:10.596Z,1.98
2023-02-26T20:27:39.142Z,2.60
2023-02-26T20:30:08.265Z,2.38
2023-02-26T20:32:37.266Z,2.15
2023-02-26T20:35:05.941Z,2.90
2023-02-26T20:37:33.170Z,2.55
2023-02-26T20:40:00.380Z,3.55
2023-02-26T20:42:27.952Z,2.10
2023-02-26T20:44:55.171Z,2.35
2023-02-26T20:47:22.268Z,2.40
2023-02-26T20:49:49.441Z,1.83
2023-02-26T20:52:16.684Z,2.13
2023-02-26T20:54:44.837Z,2.20
2023-02-26T20:57:12.874Z,2.08
2023-02-26T20:59:40.084Z,1.73
2023-02-26T21:02:08.000Z,2.03
2023-02-26T21:04:35.109Z,1.90
2023-02-26T21:07:13.352Z,1.73
2023-02-26T21:09:40.969Z,1.80
2023-02-26T21:12:08.266Z,1.65
2023-02-26T21:14:36.324Z,1.40
2023-02-26T21:17:04.414Z,1.80
2023-02-26T21:19:31.707Z,2.45
2023-02-26T21:22:00.882Z,1.70
2023-02-26T21:24:29.511Z,1.42
2023-02-26T21:26:56.690Z,1.83
2023-02-26T21:29:23.709Z,1.88
2023-02-26T21:31:54.063Z,2.45
2023-02-26T21:34:33.424Z,2.67
2023-02-26T21:37:07.144Z,2.05
2023-02-26T21:39:36.619Z,2.03
2023-02-26T21:42:03.894Z,1.77
2023-02-26T21:44:34.193Z,2.10
2023-02-26T21:47:02.732Z,2.22
2023-02-26T21:49:31.918Z,2.00
2023-02-26T21:52:05.800Z,2.20
2023-02-26T21:54:33.212Z,1.75
2023-02-26T21:57:00.140Z,1.95
2023-02-26T21:59:27.155Z,2.08
2023-02-26T22:01:54.359Z,2.10
2023-02-26T22:04:21.821Z,2.53
2023-02-26T22:06:48.747Z,2.83
2023-02-26T22:09:17.350Z,2.03
2023-02-26T22:11:44.212Z,2.75
2023-02-26T22:14:11.186Z,2.30
2023-02-26T22:16:38.188Z,3.03
2023-02-26T22:19:05.096Z,2.03
2023-02-26T22:21:32.060Z,2.30
2023-02-26T22:24:01.974Z,1.90
2023-02-26T22:26:30.111Z,1.65
2023-02-26T22:28:59.301Z,1.90
2023-02-26T22:31:29.190Z,2.05
2023-02-26T22:33:57.336Z,1.60
2023-02-26T22:36:25.325Z,1.80
2023-02-26T22:38:52.223Z,2.17
2023-02-26T22:41:19.143Z,1.77
2023-02-26T22:43:46.056Z,2.40
2023-02-26T22:46:13.046Z,1.73
2023-02-26T22:48:39.968Z,2.33
2023-02-26T22:51:06.860Z,2.25
2023-02-26T22:53:33.690Z,2.00
2023-02-26T22:56:00.815Z,2.55
2023-02-26T22:58:28.644Z,2.15
2023-02-26T23:01:05.521Z,2.05
2023-02-26T23:03:32.987Z,2.10
2023-02-26T23:06:01.245Z,2.03
2023-02-26T23:08:28.508Z,2.33
2023-02-26T23:10:58.034Z,2.60
2023-02-26T23:13:27.154Z,2.80
2023-02-26T23:15:54.111Z,2.38
2023-02-26T23:18:21.132Z,2.45
2023-02-26T23:20:49.704Z,2.63
2023-02-26T23:23:17.225Z,2.30
2023-02-26T23:25:45.174Z,1.95
2023-02-26T23:28:12.473Z,2.55
2023-02-26T23:30:40.057Z,2.50
2023-02-26T23:33:08.017Z,2.30
2023-02-26T23:35:35.668Z,2.55
2023-02-26T23:38:04.496Z,2.70
2023-02-26T23:40:32.393Z,2.20
2023-02-26T23:42:59.331Z,2.05
2023-02-26T23:45:26.223Z,2.72
2023-02-26T23:47:53.184Z,2.78
2023-02-26T23:50:20.176Z,2.40
2023-02-26T23:52:47.145Z,2.50
2023-02-26T23:55:14.043Z,3.20
2023-02-26T23:57:41.163Z,3.17
